Confluence, Kentucky
Current Conditions -  °F | °C
As of 6:53 AM on Monday 26 Jan 2015 (Local Time) from KJKL Reporting Station
Light Rain Light Rain  
Wind Chill: 28°   Ceiling: 100
Heat Index: 35°   Visibility: 0.25mi
Dew Point: 34°   Wind: 9mph
Humidity: 96%   Direction: 290°WNW
Pressure: 29.68"   Gusts: 18mph
Location:  37.26°N, 83.38°W
Report Text: KJKL 261153Z AUTO 29008G16KT 1/4SM -RA FG VV001 02/01 A2968 RMK AO2 SLP055 P0002 60005 70009 T00170011 10056 20017 51018
Loading
Personal Weather Stations






























Interactive Weather Map New forecast layout! Learn more

10-Day Weather Forecast

Advertisements
Track Severe Weather on mobile